createdAt,value
2018-06-30T00:02:52.697Z,16.5
2018-06-30T00:08:47.730Z,16.46
2018-06-30T00:14:42.716Z,14.55
2018-06-30T00:20:37.705Z,12.27
2018-06-30T00:26:32.731Z,16
2018-06-30T00:32:27.729Z,11.5
2018-06-30T00:38:22.747Z,11.52
2018-06-30T00:44:17.769Z,13.17
2018-06-30T00:50:12.764Z,10.59
2018-06-30T00:56:07.742Z,13.83
2018-06-30T01:02:02.771Z,15.85
2018-06-30T01:07:57.743Z,13.03
2018-06-30T01:13:52.739Z,15.12
2018-06-30T01:19:47.835Z,13.8
2018-06-30T01:25:42.774Z,12.82
2018-06-30T01:31:37.754Z,15.88
2018-06-30T01:37:32.781Z,15.59
2018-06-30T01:43:27.837Z,13.88
2018-06-30T01:49:22.770Z,16.53
2018-06-30T01:55:17.782Z,12.09
2018-06-30T02:01:12.833Z,13.41
2018-06-30T02:07:07.837Z,13.15
2018-06-30T02:13:02.851Z,13.11
2018-06-30T02:18:57.803Z,14.86
2018-06-30T02:24:52.818Z,13.57
2018-06-30T02:30:47.808Z,15.7
2018-06-30T02:36:42.818Z,14.66
2018-06-30T02:42:37.885Z,15.43
2018-06-30T02:48:32.814Z,16.93
2018-06-30T02:54:27.794Z,15.2
2018-06-30T03:00:22.823Z,14.76
2018-06-30T03:06:17.921Z,19.34
2018-06-30T03:12:12.810Z,20.09
2018-06-30T03:18:07.869Z,15.21
2018-06-30T03:24:02.820Z,19.11
2018-06-30T03:29:57.847Z,19.66
2018-06-30T03:35:52.851Z,16.3
2018-06-30T03:41:47.859Z,16.28
2018-06-30T03:47:42.834Z,15.28
2018-06-30T03:53:37.861Z,15.83
2018-06-30T03:59:32.873Z,18.2
2018-06-30T04:05:27.872Z,18.15
2018-06-30T04:11:22.886Z,14.28
2018-06-30T04:17:17.850Z,14.22
2018-06-30T04:23:12.903Z,15.39
2018-06-30T04:29:07.872Z,16.5
2018-06-30T04:35:02.942Z,12.41
2018-06-30T04:40:57.900Z,14.81
2018-06-30T04:46:52.896Z,11.73
2018-06-30T04:52:47.893Z,14.15
2018-06-30T04:58:42.896Z,14.36
2018-06-30T05:04:37.908Z,13.25
2018-06-30T05:10:32.928Z,14.91
2018-06-30T05:16:27.919Z,19.56
2018-06-30T05:22:22.919Z,16.56
2018-06-30T05:28:17.899Z,15.69
2018-06-30T05:34:12.918Z,13.05
2018-06-30T05:40:07.922Z,14.19
2018-06-30T05:46:02.923Z,17.76
2018-06-30T05:51:57.936Z,16.71
2018-06-30T05:57:52.920Z,14.4
2018-06-30T06:03:47.955Z,17.04
2018-06-30T06:09:42.960Z,16.8
2018-06-30T06:15:37.964Z,16.65
2018-06-30T06:21:32.985Z,22.49
2018-06-30T06:27:28.010Z,23.02
2018-06-30T06:33:22.950Z,26.06
2018-06-30T06:39:17.956Z,27.07
2018-06-30T06:45:13.009Z,22.06
2018-06-30T06:51:08.045Z,23.89
2018-06-30T06:57:03.000Z,28.4
2018-06-30T07:02:58.019Z,23.85
2018-06-30T07:08:53.000Z,21.2
2018-06-30T07:14:48.001Z,20.49
2018-06-30T07:20:43.045Z,19.23
2018-06-30T07:26:37.996Z,22.16
2018-06-30T07:32:33.034Z,15.3
2018-06-30T07:38:28.019Z,12.7
2018-06-30T07:44:22.999Z,16.25
2018-06-30T07:50:18.086Z,13.73
2018-06-30T07:56:13.068Z,12.67
2018-06-30T08:02:08.043Z,9.75
2018-06-30T08:08:03.059Z,10.42
2018-06-30T08:13:58.271Z,11.25
2018-06-30T08:19:53.059Z,10.01
2018-06-30T08:25:48.042Z,8.47
2018-06-30T08:31:43.066Z,10.55
2018-06-30T08:37:38.110Z,10.05
2018-06-30T08:43:33.079Z,8.03
2018-06-30T08:49:28.094Z,12.29
2018-06-30T08:55:23.145Z,8.45
2018-06-30T09:01:18.090Z,10.15
2018-06-30T09:07:13.120Z,8.46
2018-06-30T09:13:08.109Z,6.97
2018-06-30T09:19:03.121Z,5.71
2018-06-30T09:24:58.114Z,9.01
2018-06-30T09:30:53.099Z,6.45
2018-06-30T09:36:48.142Z,7.16
2018-06-30T09:42:43.145Z,7.49
2018-06-30T09:48:38.124Z,7.8
2018-06-30T09:54:33.101Z,10.13
2018-06-30T10:00:28.201Z,7.1
2018-06-30T10:06:23.111Z,6.2
2018-06-30T10:12:18.142Z,6.03
2018-06-30T10:18:13.132Z,6.23
2018-06-30T10:24:08.142Z,4.88
2018-06-30T10:30:03.373Z,7.71
2018-06-30T10:35:58.179Z,11.27
2018-06-30T10:41:53.132Z,4.01
2018-06-30T10:47:48.184Z,5.86
2018-06-30T10:53:43.195Z,7.31
2018-06-30T10:59:38.195Z,5
2018-06-30T11:05:33.205Z,4.22
2018-06-30T11:11:28.185Z,6.91
2018-06-30T11:17:23.204Z,6.54
2018-06-30T11:23:18.205Z,5.68
2018-06-30T11:29:13.196Z,3.43
2018-06-30T11:35:08.205Z,3.11
2018-06-30T11:41:03.251Z,3.17
2018-06-30T11:46:58.224Z,2.88
2018-06-30T11:52:53.213Z,3.42
2018-06-30T11:58:48.213Z,2.35
2018-06-30T12:04:43.242Z,3.2
2018-06-30T12:10:38.247Z,3.07
2018-06-30T12:16:33.226Z,5.42
2018-06-30T12:22:28.238Z,2.41
2018-06-30T12:28:23.264Z,3.51
2018-06-30T12:34:18.290Z,2.83
2018-06-30T12:40:13.283Z,4.23
2018-06-30T12:46:08.277Z,6.47
2018-06-30T12:52:03.297Z,2.75
2018-06-30T12:57:58.266Z,4.91
2018-06-30T13:03:53.323Z,6.25
2018-06-30T13:09:48.288Z,6.46
2018-06-30T13:15:43.255Z,5.65
2018-06-30T13:21:38.285Z,4.05
2018-06-30T13:27:33.287Z,4.46
2018-06-30T13:33:28.265Z,5.41
2018-06-30T13:39:23.297Z,4.16
2018-06-30T13:45:18.311Z,8.8
2018-06-30T13:51:13.333Z,7.2
2018-06-30T13:57:08.317Z,4.22
2018-06-30T14:03:03.308Z,3.57
2018-06-30T14:08:58.389Z,3.42
2018-06-30T14:14:53.349Z,4.74
2018-06-30T14:20:48.325Z,3.55
2018-06-30T14:26:43.327Z,3.63
2018-06-30T14:32:38.374Z,2
2018-06-30T14:38:33.336Z,2.76
2018-06-30T14:44:28.365Z,2.33
2018-06-30T14:50:23.338Z,3.3
2018-06-30T14:56:18.384Z,3.12
2018-06-30T15:02:13.390Z,3.92
2018-06-30T15:08:08.385Z,3.24
2018-06-30T15:14:03.380Z,2.64
2018-06-30T15:19:58.412Z,2.57
2018-06-30T15:25:53.385Z,2.57
2018-06-30T15:31:48.631Z,3.23
2018-06-30T15:37:43.376Z,3.54
2018-06-30T15:43:38.450Z,5.17
2018-06-30T15:49:33.403Z,1.86
2018-06-30T15:55:28.397Z,3.4
2018-06-30T16:01:23.403Z,2.51
2018-06-30T16:07:18.459Z,3.61
2018-06-30T16:13:13.441Z,2.49
2018-06-30T16:19:08.445Z,1.78
2018-06-30T16:25:03.500Z,0.99
2018-06-30T16:30:58.459Z,1.42
2018-06-30T16:36:53.469Z,4.02
2018-06-30T16:42:48.435Z,2.07
2018-06-30T16:48:43.458Z,0.87
2018-06-30T16:54:38.441Z,1.98
2018-06-30T17:00:33.510Z,1.06
2018-06-30T17:06:28.486Z,2.12
2018-06-30T17:12:23.477Z,1.53
2018-06-30T17:18:18.551Z,0.89
2018-06-30T17:24:13.460Z,1
2018-06-30T17:30:08.525Z,2.46
2018-06-30T17:36:03.533Z,2.13
2018-06-30T17:41:58.498Z,1.85
2018-06-30T17:47:53.480Z,1.53
2018-06-30T17:53:48.499Z,1.14
2018-06-30T17:59:43.523Z,3.77
2018-06-30T18:05:38.485Z,3.76
2018-06-30T18:11:33.540Z,14.71
2018-06-30T18:17:28.528Z,3.63
2018-06-30T18:23:23.572Z,3.47
2018-06-30T18:29:18.529Z,12.01
2018-06-30T18:35:13.597Z,5.49
2018-06-30T18:41:08.545Z,10.33
2018-06-30T18:47:03.559Z,29.05
2018-06-30T18:52:58.556Z,11.58
2018-06-30T18:58:53.567Z,4.51
2018-06-30T19:04:48.528Z,4.1
2018-06-30T19:10:43.566Z,6.98
2018-06-30T19:16:38.567Z,9.23
2018-06-30T19:22:33.587Z,7.23
2018-06-30T19:28:28.598Z,3.73
2018-06-30T19:34:23.592Z,7.5
2018-06-30T19:40:18.601Z,3.79
2018-06-30T19:46:13.595Z,11.95
2018-06-30T19:52:08.585Z,11.47
2018-06-30T19:58:03.576Z,11.7
2018-06-30T20:03:58.616Z,7.73
2018-06-30T20:09:53.613Z,8.16
2018-06-30T20:15:48.596Z,6.24
2018-06-30T20:21:43.602Z,4.75
2018-06-30T20:27:38.600Z,5.17
2018-06-30T20:33:33.657Z,8.26
2018-06-30T20:39:28.648Z,9.22
2018-06-30T20:45:23.793Z,10.32
2018-06-30T20:51:18.634Z,5.74
2018-06-30T20:57:13.629Z,5.48
2018-06-30T21:03:08.637Z,9.97
2018-06-30T21:09:03.620Z,13.18
2018-06-30T21:14:58.671Z,5.7
2018-06-30T21:20:53.642Z,10.41
2018-06-30T21:26:48.659Z,12.66
2018-06-30T21:32:43.651Z,16.1
2018-06-30T21:38:38.689Z,21.06
2018-06-30T21:44:33.644Z,11.5
2018-06-30T21:50:28.692Z,16.47
2018-06-30T21:56:23.685Z,21.1
2018-06-30T22:02:18.680Z,59.46
2018-06-30T22:08:13.721Z,25.3
2018-06-30T22:14:08.702Z,13.43
2018-06-30T22:20:03.682Z,13.44
2018-06-30T22:25:58.695Z,10.12
2018-06-30T22:31:53.674Z,10.95
2018-06-30T22:37:48.700Z,8.98
2018-06-30T22:43:43.745Z,7.98
2018-06-30T22:49:38.704Z,6.74
2018-06-30T22:55:33.725Z,9.37
2018-06-30T23:01:28.735Z,8.68
2018-06-30T23:07:23.720Z,9.37
2018-06-30T23:13:18.782Z,11.64
2018-06-30T23:19:13.719Z,9.37
2018-06-30T23:25:08.754Z,6.18
2018-06-30T23:31:03.712Z,6.22
2018-06-30T23:36:58.745Z,7.7
2018-06-30T23:42:53.748Z,6.84
2018-06-30T23:48:48.753Z,10.8
2018-06-30T23:54:43.747Z,8.48
